Time;durP1;ratioP1;P1;durP2;ratioP2;P2;SDS_P1;SDS_P2;PMS_P1;PMS_P2;Temp;Humidity;BMP_temperature;BMP_pressure;BME280_temperature;BME280_humidity;BME280_pressure;Samples;Min_cycle;Max_cycle;Signal;HPM_P1;HPM_P2
2023/04/26 00:02:19;;;;;;;7.82;3.13;;;;;;;6.68;100.00;101012.19;5053283;28;20098;-87
2023/04/26 00:05:02;;;;;;;2.80;1.67;;;;;;;6.69;100.00;100995.16;5036064;28;20079;-80
2023/04/26 00:07:39;;;;;;;4.07;2.58;;;;;;;6.77;100.00;101000.63;5034938;28;20077;-80
2023/04/26 00:10:06;;;;;;;3.80;2.30;;;;;;;6.83;100.00;101008.06;5035876;28;20028;-79
2023/04/26 00:12:35;;;;;;;5.13;2.35;;;;;;;6.79;100.00;100988.78;5051322;28;20498;-79
2023/04/26 00:15:02;;;;;;;7.70;3.15;;;;;;;6.78;100.00;100986.28;5051180;28;20368;-80
2023/04/26 00:17:28;;;;;;;5.65;2.90;;;;;;;6.86;100.00;100985.56;5019270;28;20468;-82
2023/04/26 00:19:57;;;;;;;4.55;2.50;;;;;;;6.82;100.00;100990.34;5035489;28;20025;-81
2023/04/26 00:22:23;;;;;;;9.00;3.42;;;;;;;6.80;100.00;100984.28;5035671;28;20033;-87
2023/04/26 00:24:51;;;;;;;8.63;3.17;;;;;;;6.76;100.00;100985.56;5035219;28;20029;-79
2023/04/26 00:27:19;;;;;;;4.30;2.40;;;;;;;6.73;100.00;100985.88;5019435;28;20062;-82
2023/04/26 00:29:45;;;;;;;1.55;1.10;;;;;;;6.70;100.00;100975.47;5051605;28;20464;-83
2023/04/26 00:32:10;;;;;;;4.43;1.60;;;;;;;6.69;100.00;100976.44;5035576;28;20040;-79
2023/04/26 00:34:36;;;;;;;5.78;2.67;;;;;;;6.79;100.00;100983.44;5052092;28;20471;-79
2023/04/26 00:37:03;;;;;;;3.05;1.55;;;;;;;6.75;100.00;100974.06;5018929;28;20033;-84
2023/04/26 00:39:32;;;;;;;5.63;2.70;;;;;;;6.76;100.00;100969.53;5051611;28;20500;-79
2023/04/26 00:41:57;;;;;;;6.13;2.47;;;;;;;6.78;100.00;100972.91;5019114;28;20068;-88
2023/04/26 00:44:25;;;;;;;2.83;1.80;;;;;;;6.74;100.00;100966.16;5018648;28;20064;-79
2023/04/26 00:46:56;;;;;;;4.13;1.90;;;;;;;6.74;100.00;100960.81;5035385;28;20052;-81
2023/04/26 00:49:25;;;;;;;3.38;2.40;;;;;;;6.74;100.00;100966.16;5052702;28;20514;-81
2023/04/26 00:51:56;;;;;;;5.07;2.50;;;;;;;6.73;100.00;100961.81;5035583;28;20480;-80
2023/04/26 00:54:30;;;;;;;4.75;2.75;;;;;;;6.77;100.00;100968.53;5019802;28;20127;-79
2023/04/26 00:56:58;;;;;;;4.95;2.20;;;;;;;6.84;100.00;100964.31;5018514;28;20506;-81
2023/04/26 00:59:28;;;;;;;8.23;2.90;;;;;;;6.88;100.00;100960.38;5051829;28;20521;-79
2023/04/26 01:01:54;;;;;;;9.85;2.78;;;;;;;6.89;100.00;100953.19;5035267;28;20119;-88
2023/04/26 01:04:24;;;;;;;6.90;3.78;;;;;;;6.89;100.00;100972.72;5018892;28;20028;-85
2023/04/26 01:06:50;;;;;;;8.77;4.22;;;;;;;6.85;100.00;100970.50;5035125;28;20037;-79
2023/04/26 01:09:18;;;;;;;8.60;2.92;;;;;;;6.85;100.00;100971.31;5018330;28;20433;-79
2023/04/26 01:11:47;;;;;;;5.25;2.53;;;;;;;6.63;100.00;100939.63;5035290;28;20087;-79
2023/04/26 01:14:16;;;;;;;9.13;4.18;;;;;;;6.85;100.00;100968.66;5035350;28;20444;-82
2023/04/26 01:16:47;;;;;;;13.32;6.75;;;;;;;6.84;100.00;100977.66;5034797;28;20044;-81
2023/04/26 01:19:15;;;;;;;8.05;5.30;;;;;;;6.69;100.00;100955.06;5051485;28;20056;-83
2023/04/26 01:21:50;;;;;;;9.75;6.45;;;;;;;6.77;100.00;100971.22;5035079;28;20037;-80
2023/04/26 01:24:18;;;;;;;6.25;3.28;;;;;;;6.72;100.00;100976.16;5051238;28;20021;-81
2023/04/26 01:26:45;;;;;;;6.32;1.98;;;;;;;6.63;100.00;100951.16;5054851;28;20494;-89
2023/04/26 01:29:18;;;;;;;4.85;2.35;;;;;;;6.65;100.00;100951.88;5054940;28;20078;-84
2023/04/26 01:31:45;;;;;;;5.97;2.35;;;;;;;6.74;100.00;100966.16;5022040;28;20132;-87
2023/04/26 01:34:11;;;;;;;4.25;2.70;;;;;;;6.67;100.00;100957.03;5021739;28;20044;-80
2023/04/26 01:36:42;;;;;;;5.38;2.50;;;;;;;6.68;100.00;100961.41;5038239;28;20575;-81
2023/04/26 01:39:10;;;;;;;4.20;2.50;;;;;;;6.73;100.00;100964.50;5038614;28;20083;-80
2023/04/26 01:41:36;;;;;;;5.40;2.40;;;;;;;6.70;100.00;100960.28;5038056;28;20386;-81
2023/04/26 01:44:01;;;;;;;7.15;2.25;;;;;;;6.71;100.00;100961.13;5054611;28;20028;-81
2023/04/26 01:46:27;;;;;;;3.83;2.35;;;;;;;6.69;100.00;100953.25;5038242;28;20183;-80
2023/04/26 01:48:53;;;;;;;5.65;2.35;;;;;;;6.74;100.00;100966.16;5054765;28;20021;-86
2023/04/26 01:51:18;;;;;;;3.67;2.13;;;;;;;6.66;100.00;100953.53;5037816;28;20387;-80
2023/04/26 01:53:46;;;;;;;5.75;2.88;;;;;;;6.69;100.00;100957.75;5055738;28;20116;-82
2023/04/26 01:56:17;;;;;;;5.05;1.85;;;;;;;6.65;100.00;100956.38;5037841;28;20045;-83
2023/04/26 01:58:43;;;;;;;2.45;1.73;;;;;;;6.75;100.00;100968.72;5054329;28;20033;-82
2023/04/26 02:01:08;;;;;;;8.30;2.20;;;;;;;6.78;100.00;100962.22;5037708;28;20097;-88
2023/04/26 02:03:40;;;;;;;4.40;2.30;;;;;;;6.69;100.00;100953.25;5054472;28;20040;-83
2023/04/26 02:06:08;;;;;;;5.57;2.50;;;;;;;6.84;100.00;100966.97;5021591;28;20119;-80
2023/04/26 02:08:36;;;;;;;3.28;1.48;;;;;;;6.79;100.00;100950.53;5037824;28;20040;-80
2023/04/26 02:11:02;;;;;;;3.65;1.77;;;;;;;6.86;100.00;100959.66;5053955;28;20036;-81
2023/04/26 02:13:28;;;;;;;5.10;2.20;;;;;;;6.88;100.00;100962.16;5037527;28;20040;-81
2023/04/26 02:15:53;;;;;;;5.72;2.53;;;;;;;6.77;100.00;100944.50;5037071;28;20036;-82
2023/04/26 02:18:22;;;;;;;2.97;1.90;;;;;;;6.76;100.00;100948.16;5037578;28;20372;-81
2023/04/26 02:20:48;;;;;;;6.82;2.60;;;;;;;6.75;100.00;100952.66;5053974;28;20029;-86
2023/04/26 02:23:13;;;;;;;3.85;1.77;;;;;;;6.73;100.00;100951.13;5054066;28;20031;-79
2023/04/26 02:25:40;;;;;;;5.88;2.40;;;;;;;6.76;100.00;100954.34;5037576;28;20117;-81
2023/04/26 02:28:06;;;;;;;9.98;2.95;;;;;;;6.76;100.00;100949.00;5053159;28;20029;-79
2023/04/26 02:30:36;;;;;;;5.35;2.50;;;;;;;6.67;100.00;100930.31;5054952;28;20043;-80
2023/04/26 02:33:04;;;;;;;3.33;2.00;;;;;;;6.79;100.00;100943.34;5054536;28;20112;-85
2023/04/26 02:35:29;;;;;;;8.05;2.38;;;;;;;6.77;100.00;100949.84;5054836;28;20357;-82
2023/04/26 02:37:55;;;;;;;9.20;2.60;;;;;;;6.74;100.00;100942.94;5020426;28;20037;-81
2023/04/26 02:40:24;;;;;;;5.72;2.08;;;;;;;6.73;100.00;100937.78;5037301;28;20486;-83
2023/04/26 02:42:52;;;;;;;7.15;2.28;;;;;;;6.72;100.00;100936.94;5054170;28;20039;-88
2023/04/26 02:45:21;;;;;;;7.40;2.38;;;;;;;6.75;100.00;100941.16;5037138;28;20103;-82
2023/04/26 02:47:49;;;;;;;7.35;2.25;;;;;;;6.74;100.00;100936.78;5037083;28;20054;-80
2023/04/26 02:50:17;;;;;;;4.65;2.53;;;;;;;6.75;100.00;100933.13;5020325;28;20467;-82
2023/04/26 02:52:45;;;;;;;5.60;2.50;;;;;;;6.79;100.00;100923.81;5036665;28;20390;-88
2023/04/26 02:55:11;;;;;;;3.97;1.70;;;;;;;6.77;100.00;100917.75;5020502;28;20087;-80
2023/04/26 02:57:39;;;;;;;4.63;2.17;;;;;;;6.80;100.00;100912.13;5054082;28;20029;-84
2023/04/26 03:00:06;;;;;;;6.30;2.45;;;;;;;6.82;100.00;100910.97;5036986;28;20033;-81
2023/04/26 03:02:32;;;;;;;2.80;1.85;;;;;;;6.78;100.00;100892.75;5036122;28;20045;-80
2023/04/26 03:04:58;;;;;;;5.28;2.40;;;;;;;6.85;100.00;100904.50;5036657;28;20051;-80
2023/04/26 03:07:28;;;;;;;1.77;1.38;;;;;;;6.80;100.00;100891.59;5053465;28;20033;-85
2023/04/26 03:09:58;;;;;;;4.65;2.42;;;;;;;6.76;100.00;100884.88;5052513;28;20096;-79
2023/04/26 03:12:23;;;;;;;2.67;1.52;;;;;;;6.70;100.00;100888.13;5036758;28;20493;-84
2023/04/26 03:14:57;;;;;;;4.63;2.40;;;;;;;6.75;100.00;100890.38;5036538;28;20119;-80
2023/04/26 03:17:23;;;;;;;4.90;2.35;;;;;;;6.72;100.00;100882.63;5020263;28;20036;-80
2023/04/26 03:19:48;;;;;;;5.97;3.00;;;;;;;6.75;100.00;100890.38;5069386;28;20048;-82
2023/04/26 03:22:16;;;;;;;6.38;2.50;;;;;;;6.68;100.00;100887.44;5020105;28;20037;-81
2023/04/26 03:24:43;;;;;;;2.80;2.00;;;;;;;6.59;100.00;100885.66;5052509;28;20029;-80
2023/04/26 03:27:09;;;;;;;7.75;3.13;;;;;;;6.57;100.00;100892.97;5052997;28;20112;-82
2023/04/26 03:29:37;;;;;;;6.68;2.55;;;;;;;6.54;100.00;100891.44;5054140;28;20064;-80
2023/04/26 03:32:07;;;;;;;3.65;2.28;;;;;;;6.44;100.00;100874.59;5052120;28;20132;-88
2023/04/26 03:34:35;;;;;;;5.03;2.15;;;;;;;6.47;100.00;100884.16;5036173;28;20037;-80
2023/04/26 03:37:06;;;;;;;3.83;1.75;;;;;;;6.48;100.00;100883.97;5036395;28;20044;-82
2023/04/26 03:39:34;;;;;;;5.93;2.28;;;;;;;6.48;100.00;100875.13;5036119;28;20086;-81
2023/04/26 03:42:00;;;;;;;5.28;2.35;;;;;;;6.50;100.00;100873.16;5052164;28;20029;-81
2023/04/26 03:44:25;;;;;;;4.47;2.53;;;;;;;6.50;100.00;100874.00;5053524;28;20032;-82
2023/04/26 03:46:51;;;;;;;5.95;2.33;;;;;;;6.52;100.00;100877.38;5019670;28;20090;-79
2023/04/26 03:49:22;;;;;;;8.30;2.30;;;;;;;6.54;100.00;100872.72;5035235;28;20039;-82
2023/04/26 03:51:50;;;;;;;3.35;2.38;;;;;;;6.53;100.00;100864.84;5036111;28;20479;-81
2023/04/26 03:54:16;;;;;;;4.85;2.00;;;;;;;6.45;100.00;100852.22;5036375;28;20059;-80
2023/04/26 03:56:43;;;;;;;5.30;2.05;;;;;;;6.53;100.00;100859.50;5052258;28;20108;-81
2023/04/26 03:59:11;;;;;;;5.18;2.25;;;;;;;6.50;100.00;100857.97;5051975;28;20025;-80
2023/04/26 04:01:40;;;;;;;3.85;2.30;;;;;;;6.58;100.00;100874.09;5052320;28;20120;-79
2023/04/26 04:04:06;;;;;;;4.82;2.13;;;;;;;6.51;100.00;100862.34;5052473;28;20057;-80
2023/04/26 04:06:36;;;;;;;5.30;2.17;;;;;;;6.57;100.00;100859.06;5035979;28;20412;-82
2023/04/26 04:09:04;;;;;;;5.47;2.17;;;;;;;6.59;100.00;100861.63;5035933;28;20407;-81
2023/04/26 04:11:33;;;;;;;2.53;2.00;;;;;;;6.61;100.00;100859.63;5019667;28;20033;-80
2023/04/26 04:14:01;;;;;;;4.32;2.20;;;;;;;6.62;100.00;100863.16;5053565;28;20025;-81
2023/04/26 04:16:27;;;;;;;3.35;2.30;;;;;;;6.65;100.00;100863.69;5035769;28;20071;-84
2023/04/26 04:18:56;;;;;;;3.17;2.08;;;;;;;6.60;100.00;100858.78;5035734;28;20064;-78
2023/04/26 04:21:21;;;;;;;3.75;2.30;;;;;;;6.61;100.00;100856.94;5035481;28;20545;-79
2023/04/26 04:23:47;;;;;;;4.97;2.28;;;;;;;6.59;100.00;100843.75;5034908;28;20029;-79
2023/04/26 04:26:12;;;;;;;4.35;2.35;;;;;;;6.68;100.00;100858.03;5035813;28;20040;-80
2023/04/26 04:28:40;;;;;;;2.42;1.83;;;;;;;6.68;100.00;100847.34;5035640;28;20032;-79
2023/04/26 04:31:08;;;;;;;5.05;2.22;;;;;;;6.65;100.00;100858.34;5035165;28;20383;-78
2023/04/26 04:33:37;;;;;;;5.57;2.25;;;;;;;6.69;100.00;100856.19;5052068;28;20048;-79
2023/04/26 04:36:11;;;;;;;6.28;2.03;;;;;;;6.65;100.00;100844.97;5036202;28;20087;-83
2023/04/26 04:38:37;;;;;;;5.90;2.50;;;;;;;6.65;100.00;100844.16;5018920;28;20033;-81
2023/04/26 04:41:03;;;;;;;2.75;2.00;;;;;;;6.63;100.00;100846.94;5035436;28;20106;-79
2023/04/26 04:43:28;;;;;;;4.45;2.22;;;;;;;6.68;100.00;100849.19;5035174;28;20494;-79
2023/04/26 04:45:54;;;;;;;3.85;2.25;;;;;;;6.66;100.00;100835.13;5053246;28;20120;-81
2023/04/26 04:48:20;;;;;;;4.43;2.30;;;;;;;6.73;100.00;100847.75;5051367;28;20041;-78
2023/04/26 04:50:46;;;;;;;4.80;2.03;;;;;;;6.41;100.00;100786.75;5035453;28;20037;-88
2023/04/26 04:53:12;;;;;;;5.15;1.83;;;;;;;6.59;100.00;100816.19;5035007;28;20622;-81
2023/04/26 04:55:37;;;;;;;4.82;1.98;;;;;;;6.70;100.00;100837.38;5034174;28;20399;-80
2023/04/26 04:58:05;;;;;;;4.50;1.75;;;;;;;6.71;100.00;100838.19;5035388;28;20094;-80
2023/04/26 05:00:37;;;;;;;1.10;0.95;;;;;;;6.73;100.00;100844.25;5021170;28;20387;-80
2023/04/26 05:03:03;;;;;;;4.85;2.22;;;;;;;6.79;100.00;100847.16;5055311;28;20111;-83
2023/04/26 05:05:33;;;;;;;3.83;1.95;;;;;;;6.83;100.00;100850.38;5022459;28;20533;-80
2023/04/26 05:08:01;;;;;;;4.15;2.25;;;;;;;6.82;100.00;100838.81;5022108;28;20572;-79
2023/04/26 05:10:32;;;;;;;4.53;1.95;;;;;;;6.78;100.00;100833.94;5053541;28;20032;-80
2023/04/26 05:12:58;;;;;;;5.03;2.05;;;;;;;6.77;100.00;100843.81;5038751;28;20041;-79
2023/04/26 05:15:24;;;;;;;4.35;2.05;;;;;;;6.77;100.00;100837.59;5056729;28;20031;-78
2023/04/26 05:17:50;;;;;;;3.58;1.95;;;;;;;6.64;100.00;100821.06;5038975;28;20037;-80
2023/04/26 05:20:18;;;;;;;3.15;2.17;;;;;;;6.82;100.00;100851.34;5038553;28;20029;-79
2023/04/26 05:22:44;;;;;;;5.43;2.20;;;;;;;6.83;100.00;100851.22;5038784;28;20475;-81
2023/04/26 05:25:10;;;;;;;5.68;1.83;;;;;;;6.81;100.00;100839.81;5055231;28;20459;-79
2023/04/26 05:27:39;;;;;;;6.50;2.20;;;;;;;6.85;100.00;100855.56;5038673;28;20032;-79
2023/04/26 05:30:05;;;;;;;3.45;1.88;;;;;;;6.87;100.00;100857.09;5038608;28;20025;-81
2023/04/26 05:32:31;;;;;;;1.40;1.20;;;;;;;6.84;100.00;100854.72;5022145;28;20036;-79
2023/04/26 05:35:00;;;;;;;2.55;1.77;;;;;;;6.88;100.00;100857.94;5021876;28;20467;-78
2023/04/26 05:37:28;;;;;;;6.07;2.10;;;;;;;6.85;100.00;100847.53;5055000;28;20036;-86
2023/04/26 05:39:56;;;;;;;4.38;1.95;;;;;;;6.87;100.00;100845.56;5055719;28;20086;-79
2023/04/26 05:42:22;;;;;;;3.65;1.85;;;;;;;6.86;100.00;100850.06;5038607;28;20475;-81
2023/04/26 05:44:52;;;;;;;3.70;2.13;;;;;;;6.93;100.00;100858.31;5054779;28;20040;-81
2023/04/26 05:47:18;;;;;;;2.83;1.80;;;;;;;6.93;100.00;100853.84;5038270;28;20087;-81
2023/04/26 05:49:44;;;;;;;4.75;2.17;;;;;;;6.96;99.76;100853.53;5054469;28;20025;-80
2023/04/26 05:52:09;;;;;;;3.80;2.28;;;;;;;7.00;99.33;100852.22;5054444;28;20029;-80
2023/04/26 05:54:37;;;;;;;5.05;2.22;;;;;;;7.07;98.17;100862.34;5038184;28;20033;-79
2023/04/26 05:57:06;;;;;;;2.58;1.67;;;;;;;7.10;97.84;100859.38;5055445;28;20029;-81
2023/04/26 05:59:35;;;;;;;5.82;1.95;;;;;;;7.17;97.37;100871.13;5054530;28;20391;-86
2023/04/26 06:02:01;;;;;;;3.13;1.75;;;;;;;7.21;96.58;100868.00;5020569;28;20064;-86
2023/04/26 06:04:26;;;;;;;4.35;2.10;;;;;;;7.26;95.96;100867.56;5054704;28;20063;-78
2023/04/26 06:06:57;;;;;;;2.42;1.52;;;;;;;7.27;96.36;100866.53;5037590;28;20040;-78
2023/04/26 06:09:26;;;;;;;4.13;1.88;;;;;;;7.29;95.36;100869.91;5038100;28;20036;-82
2023/04/26 06:11:51;;;;;;;4.60;1.80;;;;;;;7.34;95.44;100870.31;5037171;28;20033;-78
2023/04/26 06:14:19;;;;;;;2.53;1.58;;;;;;;7.38;94.52;100869.03;5020833;28;20032;-80
2023/04/26 06:16:49;;;;;;;2.47;1.20;;;;;;;7.40;94.04;100860.81;5038022;28;20040;-81
2023/04/26 06:19:17;;;;;;;5.22;2.30;;;;;;;7.41;93.71;100867.84;5037799;28;20128;-79
2023/04/26 06:21:45;;;;;;;1.60;1.23;;;;;;;7.47;92.99;100864.59;5037869;28;20082;-83
2023/04/26 06:24:10;;;;;;;3.80;1.77;;;;;;;7.56;92.33;100870.84;5037511;28;20041;-80
2023/04/26 06:26:38;;;;;;;5.32;2.00;;;;;;;7.58;92.03;100868.84;5053794;28;20456;-80
2023/04/26 06:29:07;;;;;;;5.55;2.13;;;;;;;7.59;92.40;100866.00;5054984;28;20029;-81
2023/04/26 06:31:35;;;;;;;6.10;2.22;;;;;;;7.63;92.38;100866.56;5021647;28;20090;-79
2023/04/26 06:34:02;;;;;;;5.22;2.05;;;;;;;7.67;92.29;100881.31;5021105;28;20033;-81
2023/04/26 06:36:30;;;;;;;2.92;1.67;;;;;;;7.66;92.60;100872.44;5054025;28;20135;-81
2023/04/26 06:38:58;;;;;;;6.00;2.08;;;;;;;7.70;91.99;100868.47;5053803;28;20029;-83
2023/04/26 06:41:24;;;;;;;4.32;1.80;;;;;;;7.76;91.68;100883.06;5020877;28;20025;-81
2023/04/26 06:43:53;;;;;;;4.15;1.85;;;;;;;7.78;91.24;100886.44;5037222;28;20036;-81
2023/04/26 06:46:21;;;;;;;4.43;2.28;;;;;;;7.83;89.06;100878.78;5053644;28;20037;-79
2023/04/26 06:48:46;;;;;;;6.40;1.75;;;;;;;7.85;90.18;100892.84;5054911;28;20051;-81
2023/04/26 06:51:15;;;;;;;4.25;1.70;;;;;;;7.87;90.58;100887.34;5053229;28;20550;-80
2023/04/26 06:53:43;;;;;;;3.15;1.70;;;;;;;7.77;90.58;100863.31;5054681;28;20033;-80
2023/04/26 06:56:09;;;;;;;4.78;1.70;;;;;;;7.85;91.02;100870.59;5036858;28;20119;-79
2023/04/26 06:58:37;;;;;;;3.53;1.70;;;;;;;7.92;90.80;100879.69;5053148;28;20035;-79
2023/04/26 07:01:08;;;;;;;5.03;1.70;;;;;;;7.94;90.84;100883.06;5037076;28;20029;-79
2023/04/26 07:03:34;;;;;;;5.40;1.92;;;;;;;7.93;90.59;100876.00;5036566;28;20368;-80
2023/04/26 07:06:00;;;;;;;3.70;1.88;;;;;;;8.05;90.23;100877.44;5035878;28;20049;-82
2023/04/26 07:08:26;;;;;;;5.38;2.08;;;;;;;8.10;89.65;100885.84;5036871;28;20045;-82
2023/04/26 07:10:54;;;;;;;6.75;2.28;;;;;;;8.12;89.01;100889.22;5054247;28;20083;-81
2023/04/26 07:13:20;;;;;;;4.43;2.35;;;;;;;8.17;88.93;100887.88;5053254;28;20029;-79
2023/04/26 07:15:45;;;;;;;3.70;2.10;;;;;;;8.20;88.58;100891.09;5036424;28;20033;-81
2023/04/26 07:18:15;;;;;;;5.35;1.92;;;;;;;8.23;88.38;100895.28;5053192;28;20033;-81
2023/04/26 07:20:43;;;;;;;3.20;2.13;;;;;;;8.27;87.48;100899.34;5036219;28;20032;-79
2023/04/26 07:23:09;;;;;;;5.72;1.85;;;;;;;8.31;87.43;100904.25;5035661;28;20041;-81
2023/04/26 07:25:34;;;;;;;5.05;1.90;;;;;;;8.27;86.95;100878.75;5036097;28;20095;-79
2023/04/26 07:28:00;;;;;;;3.65;2.10;;;;;;;8.34;86.50;100895.88;5036472;28;20029;-85
2023/04/26 07:30:31;;;;;;;3.05;1.90;;;;;;;8.37;86.63;100892.88;5019267;28;20028;-79
2023/04/26 07:32:59;;;;;;;2.65;1.88;;;;;;;8.42;86.74;100896.97;5053971;28;20067;-81
2023/04/26 07:35:25;;;;;;;5.63;1.88;;;;;;;8.45;86.96;100889.44;5052655;28;20051;-78
2023/04/26 07:37:53;;;;;;;4.05;1.83;;;;;;;8.43;87.16;100879.88;5053936;28;20037;-79
2023/04/26 07:40:21;;;;;;;3.75;2.35;;;;;;;8.55;87.91;100890.19;5052612;28;20032;-79
2023/04/26 07:42:49;;;;;;;4.88;1.70;;;;;;;8.56;87.93;100882.97;5053279;28;20437;-79
2023/04/26 07:45:22;;;;;;;4.43;2.00;;;;;;;8.65;87.67;100889.19;5036426;28;20036;-79
2023/04/26 07:47:49;;;;;;;4.78;1.73;;;;;;;8.70;87.01;100887.72;5036413;28;20060;-80
2023/04/26 07:50:20;;;;;;;2.80;1.73;;;;;;;8.77;87.07;100890.63;5019822;28;20033;-81
2023/04/26 07:52:46;;;;;;;2.90;1.70;;;;;;;8.78;86.57;100890.44;5035656;28;20111;-83
2023/04/26 07:55:11;;;;;;;6.30;2.40;;;;;;;8.84;86.20;100888.09;5051880;28;20039;-81
2023/04/26 07:57:37;;;;;;;4.03;1.50;;;;;;;8.88;86.41;100890.31;5053333;28;20124;-82
2023/04/26 08:00:11;;;;;;;3.70;1.70;;;;;;;8.95;85.98;100886.00;5053504;28;20098;-81
2023/04/26 08:02:47;;;;;;;2.83;1.75;;;;;;;8.99;85.43;100886.50;5036521;28;20048;-80
2023/04/26 08:05:15;;;;;;;;;;;;;;;9.06;85.77;100892.06;5021832;28;20041;-81
2023/04/26 08:07:44;;;;;;;2.60;1.48;;;;;;;9.13;85.40;100882.34;5070718;28;19908;-82
2023/04/26 08:10:10;;;;;;;3.58;2.00;;;;;;;9.12;86.49;100873.47;5035956;28;20044;-81
2023/04/26 08:12:37;;;;;;;2.35;1.55;;;;;;;9.26;85.94;100880.03;5052431;28;20017;-80
2023/04/26 08:15:04;;;;;;;6.55;2.22;;;;;;;9.39;85.52;100882.25;5019322;28;20093;-80
2023/04/26 08:17:31;;;;;;;4.75;1.90;;;;;;;9.55;84.09;100879.59;5053365;28;20035;-80
2023/04/26 08:20:04;;;;;;;4.13;1.48;;;;;;;9.68;82.32;100885.31;5052359;28;20043;-79
2023/04/26 08:22:33;;;;;;;3.15;1.50;;;;;;;9.82;80.82;100891.03;5031494;28;20475;-80
2023/04/26 08:24:58;;;;;;;2.95;1.70;;;;;;;9.92;81.28;100889.00;5051911;28;20036;-81
2023/04/26 08:27:24;;;;;;;8.95;3.22;;;;;;;10.03;81.62;100885.13;5035766;28;20067;-82
2023/04/26 08:29:50;;;;;;;6.05;2.42;;;;;;;10.10;80.25;100881.59;5035159;28;20031;-86
2023/04/26 08:32:16;;;;;;;5.30;1.77;;;;;;;10.21;79.45;100876.88;5035379;28;20080;-82
2023/04/26 08:34:42;;;;;;;13.77;4.28;;;;;;;10.24;78.50;100873.84;5053722;28;20025;-88
2023/04/26 08:37:12;;;;;;;5.47;2.28;;;;;;;10.38;78.19;100875.88;5057101;28;20497;-84
2023/04/26 08:39:38;;;;;;;7.07;2.22;;;;;;;10.22;77.38;100860.59;5056103;28;20021;-81
2023/04/26 08:42:15;;;;;;;3.25;1.85;;;;;;;10.43;78.22;100884.28;5057224;28;20079;-82
2023/04/26 08:44:43;;;;;;;6.90;2.47;;;;;;;10.39;77.16;100876.72;5037351;28;20056;-88
2023/04/26 08:47:17;;;;;;;3.22;1.92;;;;;;;10.33;77.14;100865.63;5020995;28;20124;-85
2023/04/26 08:49:51;;;;;;;4.25;2.47;;;;;;;10.47;78.12;100888.28;5053798;28;20098;-84
2023/04/26 08:52:22;;;;;;;5.35;2.72;;;;;;;10.59;77.19;100883.41;5038231;28;20103;-82
2023/04/26 08:54:51;;;;;;;5.28;2.50;;;;;;;10.74;76.59;100884.34;5022118;28;20071;-83
2023/04/26 08:57:18;;;;;;;3.28;2.17;;;;;;;10.88;75.92;100888.16;5053325;28;20036;-85
2023/04/26 08:59:45;;;;;;;3.78;2.08;;;;;;;10.98;72.84;100880.72;5036547;28;20055;-83
2023/04/26 09:02:17;;;;;;;5.32;1.95;;;;;;;11.20;73.75;100889.00;5021888;28;20041;-87
2023/04/26 09:04:44;;;;;;;3.55;1.73;;;;;;;11.33;73.04;100883.06;5022535;28;20082;-85
2023/04/26 09:07:19;;;;;;;5.50;2.10;;;;;;;11.42;73.43;100877.41;5038638;28;20112;-84
2023/04/26 09:09:54;;;;;;;7.00;2.42;;;;;;;11.60;70.77;100879.84;5022335;28;20037;-81
2023/04/26 09:12:23;;;;;;;4.35;2.20;;;;;;;11.69;68.34;100877.91;5055644;28;20079;-86
2023/04/26 09:14:49;;;;;;;4.15;2.20;;;;;;;11.68;68.85;100867.31;5038005;28;20110;-85
2023/04/26 09:17:37;;;;;;;5.22;2.35;;;;;;;11.82;69.64;100878.13;5038878;28;20029;-85
2023/04/26 09:20:36;;;;;;;3.65;1.90;;;;;;;12.05;67.77;100874.63;5022126;28;20044;-86
2023/04/26 09:23:05;;;;;;;5.03;1.88;;;;;;;12.28;67.15;100877.28;5042487;28;20097;-86
2023/04/26 09:25:31;;;;;;;6.35;1.90;;;;;;;12.53;66.19;100870.56;5056007;28;20041;-78
2023/04/26 09:27:58;;;;;;;6.10;1.92;;;;;;;12.82;65.65;100874.28;5057090;28;20067;-80
2023/04/26 09:30:24;;;;;;;7.28;4.47;;;;;;;13.06;66.05;100848.00;5053634;28;20044;-84
2023/04/26 09:33:02;;;;;;;20.88;7.65;;;;;;;13.48;63.44;100874.25;5056042;28;20029;-85
2023/04/26 09:35:35;;;;;;;10.50;2.65;;;;;;;13.67;60.46;100871.94;5039073;28;20471;-80
2023/04/26 09:38:13;;;;;;;1.90;1.50;;;;;;;13.59;60.81;100856.69;5056148;28;20041;-81
2023/04/26 09:40:41;;;;;;;3.97;2.00;;;;;;;13.70;58.23;100866.97;5054421;28;20128;-83
2023/04/26 09:43:11;;;;;;;6.70;3.00;;;;;;;13.78;58.53;100868.72;5037870;28;20037;-81
2023/04/26 09:45:49;;;;;;;6.88;3.72;;;;;;;13.87;59.22;100864.03;5038418;28;20035;-86
2023/04/26 09:48:33;;;;;;;4.10;2.28;;;;;;;13.97;58.23;100864.50;5038048;28;20065;-83
2023/04/26 09:51:01;;;;;;;5.13;2.10;;;;;;;14.18;58.03;100860.94;5038619;28;20031;-85
2023/04/26 09:53:43;;;;;;;4.95;2.30;;;;;;;14.20;57.22;100872.38;5054589;28;20418;-81
2023/04/26 09:56:20;;;;;;;2.40;1.75;;;;;;;14.08;55.96;100854.00;5038195;28;20032;-86
2023/04/26 09:58:56;;;;;;;4.55;2.60;;;;;;;14.10;56.84;100874.59;5022395;28;20037;-82
2023/04/26 10:01:30;;;;;;;5.38;2.28;;;;;;;13.93;57.49;100876.75;5055545;28;20031;-80
2023/04/26 10:04:06;;;;;;;4.22;2.20;;;;;;;13.68;57.48;100874.47;5054459;28;20036;-82
2023/04/26 10:06:34;;;;;;;5.70;2.40;;;;;;;13.39;58.11;100880.81;5037757;28;20064;-82
2023/04/26 10:09:05;;;;;;;4.30;1.80;;;;;;;13.16;59.10;100872.84;5054386;28;20048;-91
2023/04/26 10:11:30;;;;;;;4.88;2.15;;;;;;;13.08;60.85;100864.84;5054325;28;20044;-81
2023/04/26 10:13:56;;;;;;;5.15;2.58;;;;;;;13.12;61.12;100858.88;5038094;28;20048;-82
2023/04/26 10:16:22;;;;;;;8.77;3.05;;;;;;;13.35;61.27;100874.13;5055096;28;20040;-80
2023/04/26 10:18:49;;;;;;;3.10;2.30;;;;;;;13.47;61.04;100875.28;5037280;28;20043;-81
2023/04/26 10:21:34;;;;;;;5.80;2.50;;;;;;;13.82;59.74;100870.84;5037732;28;20033;-79
2023/04/26 10:24:00;;;;;;;5.28;2.33;;;;;;;13.91;58.31;100865.28;5053887;28;20135;-81
2023/04/26 10:26:48;;;;;;;5.25;2.85;;;;;;;14.02;59.70;100871.00;5054186;28;20048;-81
2023/04/26 10:29:19;;;;;;;6.45;2.55;;;;;;;14.13;59.02;100871.50;5037641;28;20044;-80
2023/04/26 10:32:04;;;;;;;3.80;2.10;;;;;;;13.96;57.76;100871.78;5038007;28;20471;-79
2023/04/26 10:34:34;;;;;;;7.72;2.20;;;;;;;13.61;59.23;100851.94;5054121;28;20108;-84
2023/04/26 10:37:18;;;;;;;4.93;2.30;;;;;;;13.76;59.73;100878.88;5053607;28;20550;-81
2023/04/26 10:39:45;;;;;;;9.65;3.08;;;;;;;13.81;59.96;100868.31;5037504;28;20033;-79
2023/04/26 10:42:29;;;;;;;4.60;2.42;;;;;;;13.82;59.82;100870.00;5053779;28;20032;-85
2023/04/26 10:44:57;;;;;;;1.83;1.33;;;;;;;13.69;59.80;100859.91;5053512;28;20044;-79
2023/04/26 10:47:33;;;;;;;5.32;2.83;;;;;;;13.55;60.38;100868.94;5036735;28;20025;-80
2023/04/26 10:50:10;;;;;;;3.92;2.15;;;;;;;13.47;62.00;100869.91;5053558;28;20060;-79
2023/04/26 10:53:04;;;;;;;4.15;2.20;;;;;;;13.35;62.30;100880.34;5054754;28;20033;-80
2023/04/26 10:55:41;;;;;;;3.80;2.63;;;;;;;13.22;63.74;100863.13;5051621;28;20048;-82
2023/04/26 10:58:33;;;;;;;8.30;3.63;;;;;;;13.16;63.28;100876.38;5053053;28;20037;-76
2023/04/26 11:01:19;;;;;;;5.95;2.58;;;;;;;13.15;64.03;100879.25;5036294;28;20029;-76
2023/04/26 11:03:55;;;;;;;4.07;2.20;;;;;;;13.30;65.22;100880.09;5052202;28;20045;-77
2023/04/26 11:06:22;;;;;;;3.85;2.40;;;;;;;13.40;65.07;100867.09;5036284;28;20116;-77
2023/04/26 11:08:48;;;;;;;3.28;2.17;;;;;;;13.57;63.86;100877.66;5054219;28;20463;-74
2023/04/26 11:11:18;;;;;;;3.92;2.17;;;;;;;13.84;63.24;100870.66;5019786;28;20037;-73
2023/04/26 11:13:45;;;;;;;5.80;2.50;;;;;;;13.91;63.95;100871.53;5020476;28;20179;-79
2023/04/26 11:16:13;;;;;;;4.07;2.40;;;;;;;13.99;62.23;100865.97;5052614;28;20049;-76
2023/04/26 11:18:46;;;;;;;6.15;3.28;;;;;;;13.92;62.24;100864.25;5020040;28;20116;-77
2023/04/26 11:21:16;;;;;;;3.67;2.70;;;;;;;14.04;62.70;100874.34;5035990;28;20032;-78
2023/04/26 11:23:42;;;;;;;4.63;2.75;;;;;;;14.12;61.83;100873.38;5036794;28;20044;-77
2023/04/26 11:26:08;;;;;;;8.63;3.47;;;;;;;14.12;62.19;100872.53;5017870;28;20037;-79
2023/04/26 11:28:36;;;;;;;5.18;3.17;;;;;;;14.18;62.14;100869.03;5050488;28;20025;-78
2023/04/26 11:31:02;;;;;;;4.82;2.55;;;;;;;14.49;60.16;100864.06;5050217;28;20040;-79
2023/04/26 11:33:28;;;;;;;9.10;3.80;;;;;;;14.67;61.06;100865.44;5050180;28;20467;-78
2023/04/26 11:35:56;;;;;;;4.65;2.95;;;;;;;14.61;59.89;100853.56;5017193;28;20056;-77